Carnival Miracle — H3VS — position and weather

sailwx.info

Track history (hours):
 
Tides and Currents Weather Stations Pressure Air Temp Water Temp Dewpoint Dewpoint Depression Visibility Wind Speed Wind Dir Waves Ship Positions

Carnival Miracle

Operator: Carnival Cruise Lines

Last reported at 2017-Mar-24 06:00 UTC. Time now 2017-Mar-24 10:17 UTC.
Position N 25°00' W 112°54'.

Type: Ship. MMSI: 35437000.

Wind from 360 at 28 knots

Barometer 1020.0 mb
Air temperature 17.0 ° C
Visibility: greater than 10.8 NM
Dewpoint 13.7 ° C
Water temperature 20.0 ° C

Date/timePositionNaut miles runAvg speedWind from/ knotsBaromVisibWave heightAir tempDewpointWater temp
2017-Mar-24 06:00N 25°00' W 112°54'   360 / 281020.010.8 17.013.720.0
2017-Mar-20 00:09N 26°27' W 114°09'9820.6
2017-Mar-19 19:25N 27°44' W 115°17'1820.7
2017-Mar-19 18:32N 27°58' W 115°29'4820.9
2017-Mar-19 16:15N 28°40' W 115°55'8521.5
2017-Mar-19 12:18N 29°59' W 116°30'1721.6
2017-Mar-19 11:32N 30°15' W 116°37'2321.8
2017-Mar-19 10:28N 30°36' W 116°47'1921.1
2017-Mar-19 09:33N 30°54' W 116°55'2120.8
2017-Mar-19 08:33N 31°14' W 117°04'2120.6
2017-Mar-19 07:33N 31°33' W 117°13'2120.5
2017-Mar-19 06:33N 31°52' W 117°20'2120.7
2017-Mar-19 05:33N 32°11' W 117°31'2120.6
2017-Mar-19 04:33N 32°30' W 117°40'2120.7
2017-Mar-19 03:33N 32°49' W 117°49'2120.7
2017-Mar-19 02:33N 33°08' W 117°59'2020.2
2017-Mar-19 01:33N 33°26' W 118°09'1414.4
2017-Mar-19 00:33N 33°41' W 118°12'4 4.4
2017-Mar-18 23:32N 33°45' W 118°11'0 0.0
2017-Mar-18 22:31N 33°45' W 118°11'0 0.0
2017-Mar-18 21:28N 33°45' W 118°11'0 0.0
2017-Mar-18 20:33N 33°45' W 118°11'0 0.0
2017-Mar-18 19:30N 33°45' W 118°11'0 0.0
2017-Mar-18 18:32N 33°45' W 118°11'0 0.0
2017-Mar-18 17:33N 33°45' W 118°11'0 0.0
2017-Mar-18 16:33N 33°45' W 118°11'0 0.0
2017-Mar-18 15:33N 33°45' W 118°11'0 0.0
2017-Mar-18 14:34N 33°45' W 118°11'1 1.0
2017-Mar-18 13:34N 33°44' W 118°11'1010.1
2017-Mar-18 12:34N 33°34' W 118°09'1414.5
2017-Mar-18 11:33N 33°21' W 118°03'1817.9
2017-Mar-18 10:33N 33°04' W 117°55'1817.9
2017-Mar-18 09:33N 32°47' W 117°47'1817.8
2017-Mar-18 08:33N 32°31' W 117°39'1818.2
2017-Mar-18 07:33N 32°14' W 117°32'1818.3
2017-Mar-18 06:33N 31°57' W 117°24'1818.3
2017-Mar-18 05:33N 31°40' W 117°15'1818.2
2017-Mar-18 04:33N 31°23' W 117°08'1817.9
2017-Mar-18 03:34N 31°06' W 117°01'2020.2
2017-Mar-18 02:33N 30°47' W 116°52'2120.0
2017-Mar-18 01:30N 30°28' W 116°43'1919.8
2017-Mar-18 00:33N 30°10' W 116°35'2020.1
2017-Mar-17 23:32N 29°51' W 116°27'3020.0
2017-Mar-17 22:04N 29°23' W 116°14'2815.5
2017-Mar-17 20:17N 28°58' W 116°03'4717.1
2017-Mar-17 17:33N 28°14' W 115°43'2019.3
2017-Mar-17 16:32N 27°59' W 115°30'2120.7
2017-Mar-17 15:32N 27°42' W 115°15'2341.8
2017-Mar-17 15:00N 27°24' W 115°00'3 6.1 360 / 131017.010.8 18.016.419.0
2017-Mar-17 14:33N 27°26' W 115°01'2020.2
2017-Mar-17 13:33N 27°10' W 114°47'  
2017-Mar-14 06:00N 23°00' W 109°06'   350 / 51017.010.8 25.022.224.0
Track history (hours):
 
Tides and Currents Weather Stations Pressure Air Temp Water Temp Dewpoint Dewpoint Depression Visibility Wind Speed Wind Dir Waves Ship Positions

Carnival Miracle

Operator: Carnival Cruise Lines

Last reported at 2017-Mar-24 06:00 UTC. Time now 2017-Mar-24 10:17 UTC.
Position N 25°00' W 112°54'.

Type: Ship. MMSI: 35437000.

Wind from 360 at 28 knots

Barometer 1020.0 mb
Air temperature 17.0 ° C
Visibility: greater than 10.8 NM
Dewpoint 13.7 ° C
Water temperature 20.0 ° C

Date/timePositionNaut miles runAvg speedWind from/ knotsBaromVisibWave heightAir tempDewpointWater temp
2017-Mar-24 06:00N 25°00' W 112°54'   360 / 281020.010.8 17.013.720.0
2017-Mar-20 00:09N 26°27' W 114°09'9820.6
2017-Mar-19 19:25N 27°44' W 115°17'1820.7
2017-Mar-19 18:32N 27°58' W 115°29'4820.9
2017-Mar-19 16:15N 28°40' W 115°55'8521.5
2017-Mar-19 12:18N 29°59' W 116°30'1721.6
2017-Mar-19 11:32N 30°15' W 116°37'2321.8
2017-Mar-19 10:28N 30°36' W 116°47'1921.1
2017-Mar-19 09:33N 30°54' W 116°55'2120.8
2017-Mar-19 08:33N 31°14' W 117°04'2120.6
2017-Mar-19 07:33N 31°33' W 117°13'2120.5
2017-Mar-19 06:33N 31°52' W 117°20'2120.7
2017-Mar-19 05:33N 32°11' W 117°31'2120.6
2017-Mar-19 04:33N 32°30' W 117°40'2120.7
2017-Mar-19 03:33N 32°49' W 117°49'2120.7
2017-Mar-19 02:33N 33°08' W 117°59'2020.2
2017-Mar-19 01:33N 33°26' W 118°09'1414.4
2017-Mar-19 00:33N 33°41' W 118°12'4 4.4
2017-Mar-18 23:32N 33°45' W 118°11'0 0.0
2017-Mar-18 22:31N 33°45' W 118°11'0 0.0
2017-Mar-18 21:28N 33°45' W 118°11'0 0.0
2017-Mar-18 20:33N 33°45' W 118°11'0 0.0
2017-Mar-18 19:30N 33°45' W 118°11'0 0.0
2017-Mar-18 18:32N 33°45' W 118°11'0 0.0
2017-Mar-18 17:33N 33°45' W 118°11'0 0.0
2017-Mar-18 16:33N 33°45' W 118°11'0 0.0
2017-Mar-18 15:33N 33°45' W 118°11'0 0.0
2017-Mar-18 14:34N 33°45' W 118°11'1 1.0
2017-Mar-18 13:34N 33°44' W 118°11'1010.1
2017-Mar-18 12:34N 33°34' W 118°09'1414.5
2017-Mar-18 11:33N 33°21' W 118°03'1817.9
2017-Mar-18 10:33N 33°04' W 117°55'1817.9
2017-Mar-18 09:33N 32°47' W 117°47'1817.8
2017-Mar-18 08:33N 32°31' W 117°39'1818.2
2017-Mar-18 07:33N 32°14' W 117°32'1818.3
2017-Mar-18 06:33N 31°57' W 117°24'1818.3
2017-Mar-18 05:33N 31°40' W 117°15'1818.2
2017-Mar-18 04:33N 31°23' W 117°08'1817.9
2017-Mar-18 03:34N 31°06' W 117°01'2020.2
2017-Mar-18 02:33N 30°47' W 116°52'2120.0
2017-Mar-18 01:30N 30°28' W 116°43'1919.8
2017-Mar-18 00:33N 30°10' W 116°35'2020.1
2017-Mar-17 23:32N 29°51' W 116°27'3020.0
2017-Mar-17 22:04N 29°23' W 116°14'2815.5
2017-Mar-17 20:17N 28°58' W 116°03'4717.1
2017-Mar-17 17:33N 28°14' W 115°43'2019.3
2017-Mar-17 16:32N 27°59' W 115°30'2120.7
2017-Mar-17 15:32N 27°42' W 115°15'2341.8
2017-Mar-17 15:00N 27°24' W 115°00'3 6.1 360 / 131017.010.8 18.016.419.0
2017-Mar-17 14:33N 27°26' W 115°01'2020.2
2017-Mar-17 13:33N 27°10' W 114°47'  
2017-Mar-14 06:00N 23°00' W 109°06'   350 / 51017.010.8 25.022.224.0

Dump ship's entire track history